createdAt,value
2019-04-05T00:00:35.458Z,32.65
2019-04-05T00:03:06.811Z,40.85
2019-04-05T00:05:38.776Z,35.52
2019-04-05T00:08:10.058Z,43.83
2019-04-05T00:10:41.647Z,45.55
2019-04-05T00:13:13.529Z,54.25
2019-04-05T00:15:45.112Z,40.23
2019-04-05T00:18:16.454Z,39.90
2019-04-05T00:20:47.889Z,38.55
2019-04-05T00:23:19.171Z,35.10
2019-04-05T00:25:50.421Z,48.33
2019-04-05T00:28:21.575Z,41.48
2019-04-05T00:30:53.507Z,42.13
2019-04-05T00:33:25.139Z,41.18
2019-04-05T00:35:56.328Z,52.13
2019-04-05T00:38:27.653Z,43.52
2019-04-05T00:40:59.389Z,51.58
2019-04-05T00:43:30.698Z,44.18
2019-04-05T00:46:02.338Z,42.50
2019-04-05T00:48:34.027Z,41.95
2019-04-05T00:51:05.860Z,37.20
2019-04-05T00:53:37.179Z,38.95
2019-04-05T00:56:08.611Z,41.65
2019-04-05T00:58:40.177Z,42.58
2019-04-05T01:01:11.578Z,51.02
2019-04-05T01:03:42.954Z,48.08
2019-04-05T01:06:14.276Z,44.45
2019-04-05T01:08:45.545Z,46.73
2019-04-05T01:11:17.627Z,44.93
2019-04-05T01:13:50.153Z,52.13
2019-04-05T01:16:22.264Z,48.42
2019-04-05T01:18:53.970Z,46.58
2019-04-05T01:21:27.510Z,46.08
2019-04-05T01:24:00.192Z,49.13
2019-04-05T01:26:32.417Z,46.35
2019-04-05T01:29:03.101Z,45.73
2019-04-05T01:31:34.565Z,46.18
2019-04-05T01:34:06.275Z,48.28
2019-04-05T01:36:37.608Z,46.83
2019-04-05T01:39:09.390Z,46.33
2019-04-05T01:41:41.595Z,44.58
2019-04-05T01:44:13.291Z,45.48
2019-04-05T01:46:45.370Z,45.80
2019-04-05T01:49:16.683Z,42.38
2019-04-05T01:51:47.651Z,50.12
2019-04-05T01:54:19.193Z,52.38
2019-04-05T01:56:50.745Z,56.65
2019-04-05T01:59:22.021Z,47.62
2019-04-05T02:01:54.251Z,51.42
2019-04-05T02:04:24.638Z,48.50
2019-04-05T02:06:56.020Z,53.80
2019-04-05T02:09:27.127Z,53.42
2019-04-05T02:11:58.965Z,49.10
2019-04-05T02:14:29.619Z,52.05
2019-04-05T02:17:01.232Z,49.55
2019-04-05T02:19:32.618Z,47.70
2019-04-05T02:22:04.279Z,47.13
2019-04-05T02:24:35.598Z,53.50
2019-04-05T02:27:06.557Z,50.35
2019-04-05T02:29:37.531Z,52.00
2019-04-05T02:32:08.552Z,49.85
2019-04-05T02:34:40.181Z,50.38
2019-04-05T02:37:11.746Z,50.85
2019-04-05T02:39:43.015Z,49.60
2019-04-05T02:42:15.625Z,49.15
2019-04-05T02:44:49.006Z,49.58
2019-04-05T02:47:21.384Z,50.48
2019-04-05T02:49:54.598Z,49.45
2019-04-05T02:52:27.012Z,48.10
2019-04-05T02:54:58.663Z,47.15
2019-04-05T02:57:30.770Z,48.68
2019-04-05T03:00:02.498Z,45.63
2019-04-05T03:02:34.473Z,43.40
2019-04-05T03:05:06.629Z,46.37
2019-04-05T03:07:38.310Z,44.13
2019-04-05T03:10:10.282Z,42.98
2019-04-05T03:12:42.336Z,43.35
2019-04-05T03:15:14.566Z,40.28
2019-04-05T03:17:46.097Z,45.28
2019-04-05T03:20:17.488Z,42.88
2019-04-05T03:22:49.646Z,41.37
2019-04-05T03:25:21.557Z,39.70
2019-04-05T03:27:52.319Z,40.38
2019-04-05T03:30:23.431Z,39.20
2019-04-05T03:32:54.616Z,42.05
2019-04-05T03:35:26.288Z,40.55
2019-04-05T03:37:57.527Z,43.83
2019-04-05T03:40:29.420Z,42.93
2019-04-05T03:43:01.589Z,46.98
2019-04-05T03:45:33.509Z,44.38
2019-04-05T03:48:04.197Z,43.83
2019-04-05T03:50:35.625Z,44.90
2019-04-05T03:53:07.108Z,41.73
2019-04-05T03:55:38.207Z,42.75
2019-04-05T03:58:08.956Z,44.25
2019-04-05T04:00:58.547Z,42.20
2019-04-05T04:03:30.308Z,44.05
2019-04-05T04:06:01.330Z,45.75
2019-04-05T04:08:32.754Z,47.45
2019-04-05T04:11:03.911Z,45.78
2019-04-05T04:13:35.890Z,45.28
2019-04-05T04:16:08.348Z,44.98
2019-04-05T04:18:39.773Z,45.05
2019-04-05T04:22:11.287Z,46.68
2019-04-05T04:24:43.270Z,46.30
2019-04-05T04:27:15.467Z,47.75
2019-04-05T04:29:46.866Z,46.75
2019-04-05T04:32:18.431Z,47.65
2019-04-05T04:34:52.628Z,44.70
2019-04-05T04:37:23.919Z,47.05
2019-04-05T04:39:55.676Z,46.25
2019-04-05T04:42:27.705Z,49.05
2019-04-05T04:45:11.391Z,43.75
2019-04-05T04:47:32.846Z,50.70
2019-04-05T04:50:04.842Z,45.92
2019-04-05T04:52:37.012Z,48.08
2019-04-05T04:55:09.019Z,49.25
2019-04-05T04:57:40.221Z,48.92
2019-04-05T05:00:12.079Z,49.75
2019-04-05T05:02:43.944Z,51.73
2019-04-05T05:05:16.573Z,49.15
2019-04-05T05:07:48.038Z,56.15
2019-04-05T05:10:19.319Z,51.98
2019-04-05T05:12:50.505Z,52.80
2019-04-05T05:15:23.054Z,52.45
2019-04-05T05:17:58.934Z,50.12
2019-04-05T05:20:28.255Z,51.58
2019-04-05T05:23:00.045Z,51.33
2019-04-05T05:25:31.667Z,52.85
2019-04-05T05:28:03.426Z,50.28
2019-04-05T05:30:35.822Z,49.30
2019-04-05T05:33:07.539Z,50.15
2019-04-05T05:35:38.582Z,47.90
2019-04-05T05:38:09.960Z,49.63
2019-04-05T05:40:41.370Z,48.60
2019-04-05T05:43:12.156Z,52.30
2019-04-05T05:45:43.894Z,51.40
2019-04-05T05:48:15.756Z,53.48
2019-04-05T05:50:48.190Z,49.80
2019-04-05T05:53:19.734Z,48.98
2019-04-05T05:55:51.051Z,55.70
2019-04-05T05:58:23.566Z,52.55
2019-04-05T06:00:55.708Z,158.22
2019-04-05T06:03:27.289Z,58.13
2019-04-05T06:06:04.531Z,53.08
2019-04-05T06:08:32.013Z,49.30
2019-04-05T06:11:04.191Z,89.22
2019-04-05T06:13:35.311Z,73.42
2019-04-05T06:16:06.601Z,143.05
2019-04-05T06:18:38.520Z,61.70
2019-04-05T06:21:09.956Z,63.17
2019-04-05T06:23:41.543Z,49.33
2019-04-05T06:26:12.935Z,47.93
2019-04-05T06:28:44.661Z,51.55
2019-04-05T06:31:16.227Z,49.75
2019-04-05T06:33:47.877Z,52.38
2019-04-05T06:36:19.780Z,53.45
2019-04-05T06:38:51.206Z,57.15
2019-04-05T06:41:23.201Z,54.05
2019-04-05T06:43:54.930Z,54.80
2019-04-05T06:46:26.571Z,47.20
2019-04-05T06:48:57.569Z,51.85
2019-04-05T06:51:28.315Z,50.40
2019-04-05T06:54:03.255Z,49.10
2019-04-05T06:56:32.747Z,48.63
2019-04-05T06:59:05.184Z,51.70
2019-04-05T07:01:36.335Z,50.20
2019-04-05T07:04:07.336Z,51.40
2019-04-05T07:06:38.748Z,53.02
2019-04-05T07:09:10.423Z,51.48
2019-04-05T07:11:42.033Z,53.23
2019-04-05T07:14:13.801Z,48.52
2019-04-05T07:16:45.391Z,47.40
2019-04-05T07:19:16.971Z,47.00
2019-04-05T07:21:48.880Z,47.05
2019-04-05T07:24:20.160Z,42.88
2019-04-05T07:26:51.711Z,50.45
2019-04-05T07:29:22.552Z,46.48
2019-04-05T07:31:54.306Z,40.50
2019-04-05T07:34:25.430Z,44.73
2019-04-05T07:36:56.779Z,42.98
2019-04-05T07:39:28.741Z,45.25
2019-04-05T07:41:59.920Z,44.35
2019-04-05T07:44:31.445Z,45.70
2019-04-05T07:47:02.964Z,46.28
2019-04-05T07:49:39.876Z,50.20
2019-04-05T07:52:13.153Z,48.85
2019-04-05T07:54:47.201Z,46.73
2019-04-05T07:57:18.428Z,46.42
2019-04-05T07:59:49.318Z,41.98
2019-04-05T08:02:20.059Z,39.13
2019-04-05T08:04:54.631Z,39.33
2019-04-05T08:07:33.126Z,40.30
2019-04-05T08:10:06.132Z,37.43
2019-04-05T08:12:38.134Z,41.28
2019-04-05T08:15:11.435Z,40.70
2019-04-05T08:17:43.647Z,41.80
2019-04-05T08:20:14.660Z,37.80
2019-04-05T08:22:46.946Z,40.23
2019-04-05T08:25:19.043Z,41.23
2019-04-05T08:27:51.045Z,36.37
2019-04-05T08:30:23.634Z,36.87
2019-04-05T08:32:54.839Z,37.63
2019-04-05T08:35:28.696Z,36.20
2019-04-05T08:38:01.235Z,36.97
2019-04-05T08:40:33.103Z,55.77
2019-04-05T08:43:04.659Z,37.60
2019-04-05T08:45:36.285Z,37.73
2019-04-05T08:48:08.173Z,40.00
2019-04-05T08:50:39.520Z,40.27
2019-04-05T08:53:11.123Z,36.00
2019-04-05T08:55:42.607Z,37.23
2019-04-05T08:58:14.257Z,28.70
2019-04-05T09:00:45.476Z,29.93
2019-04-05T09:03:17.072Z,31.97
2019-04-05T09:05:48.438Z,36.53
2019-04-05T09:08:21.525Z,34.27
2019-04-05T09:10:54.684Z,33.97
2019-04-05T09:13:26.843Z,30.03
2019-04-05T09:15:58.354Z,36.20
2019-04-05T09:18:30.954Z,32.10
2019-04-05T09:21:02.474Z,30.23
2019-04-05T09:23:33.820Z,30.23
2019-04-05T09:26:06.245Z,29.10
2019-04-05T09:28:37.553Z,31.17
2019-04-05T09:31:08.979Z,30.50
2019-04-05T09:33:41.432Z,30.23
2019-04-05T09:36:13.138Z,26.63
2019-04-05T09:38:45.353Z,29.70
2019-04-05T09:41:16.567Z,42.07
2019-04-05T09:43:48.029Z,42.00
2019-04-05T09:46:20.012Z,28.67
2019-04-05T09:48:51.494Z,28.03
2019-04-05T09:51:22.828Z,26.00
2019-04-05T09:53:55.045Z,31.10
2019-04-05T09:56:26.845Z,26.50
2019-04-05T09:58:58.386Z,26.50
2019-04-05T10:01:30.173Z,25.97
2019-04-05T10:04:02.448Z,26.10
2019-04-05T10:06:34.297Z,26.03
2019-04-05T10:09:07.152Z,28.20
2019-04-05T10:11:39.161Z,24.87
2019-04-05T10:14:11.052Z,26.30
2019-04-05T10:16:42.955Z,20.40
2019-04-05T10:19:14.081Z,17.10
2019-04-05T10:21:45.204Z,24.83
2019-04-05T10:24:16.841Z,23.60
2019-04-05T10:26:48.186Z,24.60
2019-04-05T10:29:20.275Z,23.30
2019-04-05T10:31:51.997Z,24.97
2019-04-05T10:34:23.100Z,24.17
2019-04-05T10:36:54.524Z,35.70
2019-04-05T10:39:25.403Z,21.93
2019-04-05T10:42:03.730Z,25.33
2019-04-05T10:44:30.700Z,22.67
2019-04-05T10:47:02.221Z,19.67
2019-04-05T10:49:34.246Z,18.57
2019-04-05T10:52:06.744Z,20.30
2019-04-05T10:54:38.783Z,19.00
2019-04-05T10:57:10.527Z,19.90
2019-04-05T10:59:42.305Z,18.07
2019-04-05T11:02:14.495Z,19.37
2019-04-05T11:04:45.998Z,18.53
2019-04-05T11:07:18.242Z,19.90
2019-04-05T11:09:49.625Z,20.20
2019-04-05T11:12:21.400Z,18.77
2019-04-05T11:14:52.619Z,18.87
2019-04-05T11:17:24.445Z,19.70
2019-04-05T11:19:56.330Z,17.50
2019-04-05T11:22:28.243Z,18.00
2019-04-05T11:24:59.343Z,26.00
2019-04-05T11:27:31.709Z,18.60
2019-04-05T11:30:03.916Z,17.83
2019-04-05T11:32:35.236Z,18.00
2019-04-05T11:35:07.640Z,18.30
2019-04-05T11:37:39.617Z,20.77
2019-04-05T11:40:12.273Z,21.27
2019-04-05T11:42:45.160Z,18.13
2019-04-05T11:45:16.696Z,24.00
2019-04-05T11:47:48.800Z,29.80
2019-04-05T11:50:33.591Z,24.93
2019-04-05T11:52:53.838Z,39.63
2019-04-05T11:55:25.233Z,17.43
2019-04-05T11:57:56.887Z,18.53
2019-04-05T12:00:49.852Z,16.77
2019-04-05T12:03:21.898Z,20.80
2019-04-05T12:05:53.997Z,18.03
2019-04-05T12:08:26.406Z,22.23
2019-04-05T12:10:58.457Z,19.60
2019-04-05T12:13:29.726Z,20.73
2019-04-05T12:16:00.909Z,27.07
2019-04-05T12:18:34.866Z,27.20
2019-04-05T12:21:07.233Z,22.90
2019-04-05T12:23:39.214Z,23.67
2019-04-05T12:26:11.175Z,23.67
2019-04-05T12:28:42.704Z,25.50
2019-04-05T12:31:15.800Z,24.10
2019-04-05T12:33:51.439Z,22.47
2019-04-05T12:36:22.296Z,21.90
2019-04-05T12:38:54.514Z,23.03
2019-04-05T12:41:26.864Z,26.47
2019-04-05T12:43:58.706Z,26.03
2019-04-05T12:46:31.242Z,22.10
2019-04-05T12:49:03.994Z,24.77
2019-04-05T12:51:35.701Z,25.20
2019-04-05T12:54:07.064Z,26.43
2019-04-05T12:56:40.557Z,24.10
2019-04-05T12:59:13.465Z,27.83
2019-04-05T13:01:46.476Z,25.10
2019-04-05T13:04:32.710Z,24.43
2019-04-05T13:07:36.840Z,25.00
2019-04-05T13:10:09.272Z,25.37
2019-04-05T13:12:41.067Z,24.30
2019-04-05T13:15:16.982Z,26.47
2019-04-05T13:17:46.434Z,22.70
2019-04-05T13:20:19.465Z,22.23
2019-04-05T13:22:51.597Z,28.67
2019-04-05T13:25:23.655Z,34.70
2019-04-05T13:27:55.393Z,23.43
2019-04-05T13:30:27.505Z,26.47
2019-04-05T13:33:00.177Z,33.00
2019-04-05T13:35:32.259Z,28.23
2019-04-05T13:38:04.489Z,27.73
2019-04-05T13:40:35.861Z,26.57
2019-04-05T13:43:07.786Z,29.23
2019-04-05T13:45:40.292Z,30.30
2019-04-05T13:48:11.921Z,29.90
2019-04-05T13:50:43.954Z,26.63
2019-04-05T13:53:15.625Z,29.03
2019-04-05T13:55:47.826Z,24.73
2019-04-05T13:58:19.865Z,26.00
2019-04-05T14:00:51.683Z,26.33
2019-04-05T14:03:24.082Z,24.60
2019-04-05T14:05:55.446Z,29.60
2019-04-05T14:08:27.208Z,26.93
2019-04-05T14:10:59.330Z,37.70
2019-04-05T14:13:30.808Z,32.53
2019-04-05T14:16:02.161Z,29.33
2019-04-05T14:18:33.655Z,32.53
2019-04-05T14:21:05.293Z,30.73
2019-04-05T14:23:37.048Z,28.70
2019-04-05T14:26:08.727Z,28.90
2019-04-05T14:28:40.883Z,34.23
2019-04-05T14:31:12.429Z,27.03
2019-04-05T14:33:43.763Z,29.93
2019-04-05T14:36:15.431Z,29.33
2019-04-05T14:38:47.292Z,30.27
2019-04-05T14:41:19.100Z,27.80
2019-04-05T14:43:50.774Z,29.00
2019-04-05T14:46:22.425Z,30.60
2019-04-05T14:48:53.632Z,31.47
2019-04-05T14:51:28.401Z,29.90
2019-04-05T14:53:59.551Z,32.07
2019-04-05T14:56:32.170Z,31.17
2019-04-05T14:59:03.887Z,33.60
2019-04-05T15:01:35.012Z,30.70
2019-04-05T15:04:07.727Z,31.80
2019-04-05T15:06:39.339Z,32.37
2019-04-05T15:09:10.860Z,35.73
2019-04-05T15:11:41.987Z,33.70
2019-04-05T15:14:13.718Z,35.30
2019-04-05T15:16:45.046Z,31.53
2019-04-05T15:19:16.957Z,31.43
2019-04-05T15:21:49.173Z,37.53
2019-04-05T15:24:20.203Z,33.37
2019-04-05T15:26:52.169Z,41.83
2019-04-05T15:29:25.858Z,34.13
2019-04-05T15:31:56.294Z,38.87
2019-04-05T15:34:29.048Z,49.67
2019-04-05T15:37:01.543Z,39.33
2019-04-05T15:39:34.146Z,40.60
2019-04-05T15:42:05.639Z,34.37
2019-04-05T15:44:37.106Z,34.30
2019-04-05T15:47:08.798Z,38.03
2019-04-05T15:49:40.248Z,37.57
2019-04-05T15:52:18.593Z,32.70
2019-04-05T15:54:45.229Z,32.97
2019-04-05T15:57:16.834Z,32.60
2019-04-05T15:59:48.437Z,34.03
2019-04-05T16:02:19.619Z,37.50
2019-04-05T16:04:51.981Z,37.87
2019-04-05T16:07:22.862Z,36.27
2019-04-05T16:09:55.183Z,52.83
2019-04-05T16:12:27.038Z,53.40
2019-04-05T16:14:59.036Z,38.37
2019-04-05T16:17:30.909Z,42.30
2019-04-05T16:20:02.741Z,38.13
2019-04-05T16:22:35.852Z,39.83
2019-04-05T16:25:07.557Z,37.80
2019-04-05T16:27:38.312Z,37.43
2019-04-05T16:30:10.800Z,38.93
2019-04-05T16:32:42.855Z,39.43
2019-04-05T16:35:14.786Z,38.63
2019-04-05T16:37:46.301Z,40.07
2019-04-05T16:40:18.634Z,43.77
2019-04-05T16:43:01.729Z,39.97
2019-04-05T16:45:23.371Z,43.43
2019-04-05T16:47:55.543Z,40.23
2019-04-05T16:50:27.018Z,42.80
2019-04-05T16:52:58.724Z,96.40
2019-04-05T16:55:30.719Z,46.90
2019-04-05T16:58:02.208Z,37.70
2019-04-05T17:00:34.309Z,43.83
2019-04-05T17:03:05.696Z,38.17
2019-04-05T17:05:37.018Z,35.50
2019-04-05T17:08:08.297Z,35.93
2019-04-05T17:10:40.465Z,41.23
2019-04-05T17:13:12.626Z,35.03
2019-04-05T17:15:44.374Z,33.73
2019-04-05T17:18:15.564Z,38.83
2019-04-05T17:20:46.363Z,37.17
2019-04-05T17:23:18.070Z,39.13
2019-04-05T17:25:50.009Z,38.30
2019-04-05T17:28:21.485Z,37.20
2019-04-05T17:30:53.293Z,39.43
2019-04-05T17:33:24.457Z,38.60
2019-04-05T17:35:56.709Z,39.17
2019-04-05T17:38:27.465Z,40.67
2019-04-05T17:40:59.189Z,44.03
2019-04-05T17:43:30.639Z,44.23
2019-04-05T17:46:03.840Z,39.00
2019-04-05T17:48:35.602Z,38.83
2019-04-05T17:51:07.355Z,36.33
2019-04-05T17:53:39.699Z,41.60
2019-04-05T17:56:12.195Z,43.47
2019-04-05T17:58:44.019Z,37.20
2019-04-05T18:01:15.716Z,39.00
2019-04-05T18:03:47.706Z,42.70
2019-04-05T18:06:19.135Z,38.70
2019-04-05T18:08:51.256Z,41.77
2019-04-05T18:11:23.700Z,39.80
2019-04-05T18:13:55.989Z,43.03
2019-04-05T18:16:27.943Z,37.73
2019-04-05T18:18:59.646Z,39.07
2019-04-05T18:21:31.200Z,37.40
2019-04-05T18:24:03.059Z,39.77
2019-04-05T18:26:34.866Z,43.60
2019-04-05T18:29:06.720Z,50.17
2019-04-05T18:31:38.940Z,43.83
2019-04-05T18:34:10.434Z,46.70
2019-04-05T18:36:41.873Z,46.10
2019-04-05T18:39:13.419Z,40.43
2019-04-05T18:41:45.666Z,40.60
2019-04-05T18:44:16.862Z,42.60
2019-04-05T18:46:48.995Z,40.70
2019-04-05T18:49:21.101Z,44.10
2019-04-05T18:51:53.573Z,44.40
2019-04-05T18:54:24.723Z,48.67
2019-04-05T18:56:55.556Z,40.70
2019-04-05T18:59:27.191Z,45.63
2019-04-05T19:01:58.708Z,51.23
2019-04-05T19:04:30.898Z,44.73
2019-04-05T19:07:02.583Z,48.97
2019-04-05T19:09:34.595Z,50.30
2019-04-05T19:12:06.241Z,44.70
2019-04-05T19:14:38.009Z,46.80
2019-04-05T19:17:09.591Z,44.13
2019-04-05T19:19:41.505Z,45.60
2019-04-05T19:22:13.642Z,51.83
2019-04-05T19:24:46.153Z,46.53
2019-04-05T19:27:19.158Z,50.27
2019-04-05T19:29:50.151Z,54.67
2019-04-05T19:50:19.694Z,68.57
2019-04-05T19:52:51.695Z,59.90
2019-04-05T19:55:23.873Z,62.43
2019-04-05T19:57:56.415Z,63.13
2019-04-05T20:00:28.310Z,58.87
2019-04-05T20:03:00.454Z,58.67
2019-04-05T20:05:32.286Z,56.37
2019-04-05T20:08:04.738Z,53.20
2019-04-05T20:10:39.782Z,50.57
2019-04-05T20:13:12.373Z,51.97
2019-04-05T20:15:43.935Z,46.10
2019-04-05T20:18:15.826Z,51.43
2019-04-05T20:20:47.229Z,53.97
2019-04-05T20:23:19.268Z,56.10
2019-04-05T20:25:52.193Z,53.37
2019-04-05T20:28:23.802Z,50.47
2019-04-05T20:30:55.785Z,51.42
2019-04-05T20:33:28.379Z,52.27
2019-04-05T20:35:59.942Z,51.90
2019-04-05T20:38:31.474Z,58.00
2019-04-05T20:41:03.035Z,56.50
2019-04-05T20:43:34.802Z,57.13
2019-04-05T20:46:06.300Z,53.93
2019-04-05T20:48:37.218Z,58.17
2019-04-05T20:51:09.599Z,53.90
2019-04-05T20:53:41.541Z,54.87
2019-04-05T20:56:14.122Z,49.43
2019-04-05T20:58:46.258Z,48.13
2019-04-05T21:01:19.454Z,58.13
2019-04-05T21:03:51.121Z,54.07
2019-04-05T21:06:22.531Z,55.97
2019-04-05T21:08:53.907Z,52.13
2019-04-05T21:11:27.175Z,52.50
2019-04-05T21:14:00.000Z,48.97
2019-04-05T21:16:32.237Z,53.70
2019-04-05T21:19:05.089Z,53.83
2019-04-05T21:21:36.445Z,56.10
2019-04-05T21:24:07.775Z,135.83
2019-04-05T21:26:39.435Z,64.67
2019-04-05T21:29:11.461Z,79.10
2019-04-05T21:31:42.871Z,59.40
2019-04-05T21:34:14.704Z,59.57
2019-04-05T21:36:46.427Z,59.90
2019-04-05T21:39:17.755Z,63.40
2019-04-05T21:41:48.480Z,56.07
2019-04-05T21:44:20.181Z,63.13
2019-04-05T21:46:51.911Z,59.43
2019-04-05T21:49:23.327Z,62.43
2019-04-05T21:51:54.064Z,61.90
2019-04-05T21:54:25.800Z,66.47
2019-04-05T21:56:57.907Z,59.80
2019-04-05T21:59:29.426Z,56.80
2019-04-05T22:02:00.785Z,59.17
2019-04-05T22:04:32.159Z,59.13
2019-04-05T22:07:03.651Z,59.90
2019-04-05T22:09:35.978Z,63.13
2019-04-05T22:12:07.646Z,59.70
2019-04-05T22:14:39.284Z,65.33
2019-04-05T22:17:10.937Z,71.70
2019-04-05T22:19:42.492Z,58.20
2019-04-05T22:22:13.514Z,59.90
2019-04-05T22:24:44.684Z,67.93
2019-04-05T22:27:15.987Z,69.20
2019-04-05T22:29:47.997Z,67.07
2019-04-05T22:32:18.981Z,95.60
2019-04-05T22:34:50.562Z,60.07
2019-04-05T22:37:22.073Z,58.70
2019-04-05T22:39:53.456Z,62.77
2019-04-05T22:42:24.978Z,61.30
2019-04-05T22:44:56.920Z,64.17
2019-04-05T22:47:27.903Z,60.90
2019-04-05T22:49:59.507Z,59.50
2019-04-05T22:52:30.516Z,58.07
2019-04-05T22:55:11.000Z,58.38
2019-04-05T22:57:35.157Z,62.37
2019-04-05T23:00:07.883Z,62.97
2019-04-05T23:02:39.191Z,57.80
2019-04-05T23:05:10.575Z,56.70
2019-04-05T23:07:41.601Z,63.70
2019-04-05T23:10:12.579Z,60.60
2019-04-05T23:12:43.879Z,63.03
2019-04-05T23:15:15.422Z,63.43
2019-04-05T23:17:47.299Z,62.07
2019-04-05T23:20:18.878Z,62.00
2019-04-05T23:22:50.188Z,63.73
2019-04-05T23:25:22.517Z,66.20
2019-04-05T23:27:53.810Z,60.40
2019-04-05T23:30:25.706Z,59.80
2019-04-05T23:32:57.146Z,63.60
2019-04-05T23:35:28.882Z,60.40
2019-04-05T23:38:00.545Z,57.90
2019-04-05T23:40:32.399Z,56.17
2019-04-05T23:43:04.023Z,56.30
2019-04-05T23:45:35.039Z,55.90
2019-04-05T23:48:05.953Z,63.23
2019-04-05T23:50:36.732Z,58.43
2019-04-05T23:53:07.751Z,56.13
2019-04-05T23:55:39.073Z,57.87
2019-04-05T23:58:10.452Z,52.50
